Time;durP1;ratioP1;P1;durP2;ratioP2;P2;SDS_P1;SDS_P2;PMS_P1;PMS_P2;Temp;Humidity;BMP_temperature;BMP_pressure;BME280_temperature;BME280_humidity;BME280_pressure;Samples;Min_cycle;Max_cycle;Signal;HPM_P1;HPM_P2
2021/01/11 00:00:20;;;;;;;51.85;31.98;;;-2.40;92.70;;;;;;5050418;28;20413;-90
2021/01/11 00:02:50;;;;;;;51.80;31.50;;;-2.50;92.60;;;;;;5034923;28;20454;-90
2021/01/11 00:05:18;;;;;;;52.55;31.90;;;-2.50;92.80;;;;;;5033002;28;20903;-90
2021/01/11 00:07:45;;;;;;;51.30;31.50;;;-2.40;92.90;;;;;;5034715;28;20806;-90
2021/01/11 00:10:13;;;;;;;52.53;31.70;;;-2.40;92.80;;;;;;5032953;28;20425;-90
2021/01/11 00:12:42;;;;;;;49.65;31.38;;;-2.40;92.90;;;;;;5052401;28;20421;-90
2021/01/11 00:15:14;;;;;;;51.85;32.05;;;-2.50;92.90;;;;;;5043294;28;20876;-90
2021/01/11 00:17:42;;;;;;;54.05;32.20;;;-2.40;93.00;;;;;;4999508;28;20399;-90
2021/01/11 00:20:10;;;;;;;53.00;31.92;;;-2.40;93.00;;;;;;5031664;28;20412;-90
2021/01/11 00:22:37;;;;;;;51.30;31.50;;;-2.40;92.90;;;;;;5032140;28;20415;-90
2021/01/11 00:25:05;;;;;;;53.67;31.88;;;-2.40;92.90;;;;;;5031249;28;20684;-89
2021/01/11 00:27:32;;;;;;;53.03;32.58;;;-2.40;93.10;;;;;;5025949;28;20416;-90
2021/01/11 00:30:00;;;;;;;55.92;32.80;;;-2.40;93.10;;;;;;5051977;28;20405;-90
2021/01/11 00:32:27;;;;;;;54.03;32.25;;;-2.40;93.00;;;;;;5031287;28;20491;-89
2021/01/11 00:34:54;;;;;;;53.50;31.17;;;-2.40;93.00;;;;;;5032816;28;20403;-89
2021/01/11 00:37:21;;;;;;;52.78;31.63;;;-2.40;92.90;;;;;;5013040;28;20446;-89
2021/01/11 00:39:48;;;;;;;53.97;33.15;;;-2.30;92.90;;;;;;5014721;28;20429;-90
2021/01/11 00:42:18;;;;;;;54.83;33.65;;;-2.30;93.00;;;;;;5013448;28;20429;-89
2021/01/11 00:44:45;;;;;;;51.78;32.55;;;-2.40;93.00;;;;;;5018830;28;20431;-90
2021/01/11 00:47:12;;;;;;;53.97;32.15;;;-2.40;92.90;;;;;;5017305;28;20457;-89
2021/01/11 00:49:42;;;;;;;53.33;32.17;;;-2.40;92.90;;;;;;5018863;28;20486;-88
2021/01/11 00:52:11;;;;;;;50.28;31.17;;;-2.30;92.90;;;;;;5023884;28;20409;-89
2021/01/11 00:54:41;;;;;;;48.92;28.77;;;-2.30;92.70;;;;;;5038991;28;20397;-89
2021/01/11 00:57:08;;;;;;;48.70;28.95;;;-2.30;92.70;;;;;;5052666;28;20421;-90
2021/01/11 00:59:34;;;;;;;46.97;28.75;;;-2.40;92.40;;;;;;5055926;28;20409;-90
2021/01/11 01:02:01;;;;;;;48.47;29.88;;;-2.30;92.20;;;;;;5036098;28;20506;-90
2021/01/11 01:04:30;;;;;;;46.30;28.77;;;-2.40;92.30;;;;;;5055930;28;20421;-91
2021/01/11 01:07:01;;;;;;;46.22;29.10;;;-2.40;92.10;;;;;;5037790;28;20421;-90
2021/01/11 01:09:29;;;;;;;39.20;24.95;;;-2.40;92.30;;;;;;5017202;28;20967;-90
2021/01/11 01:11:56;;;;;;;39.80;25.17;;;-2.40;91.50;;;;;;5017741;28;20407;-90
2021/01/11 01:14:23;;;;;;;46.83;26.42;;;-2.40;91.70;;;;;;5016814;28;20449;-91
2021/01/11 01:16:49;;;;;;;40.20;25.15;;;-2.40;91.70;;;;;;5034627;28;20963;-90
2021/01/11 01:19:20;;;;;;;43.42;25.75;;;-2.40;91.70;;;;;;5052621;28;20771;-91
2021/01/11 01:21:49;;;;;;;40.45;24.77;;;-2.40;91.70;;;;;;5055331;28;20406;-91
2021/01/11 01:24:18;;;;;;;39.13;25.15;;;-2.40;91.50;;;;;;5043802;28;20477;-90
2021/01/11 01:26:47;;;;;;;42.80;24.87;;;-2.40;91.40;;;;;;5017634;28;20885;-89
2021/01/11 01:29:14;;;;;;;39.53;24.10;;;-2.50;91.40;;;;;;5048847;28;20457;-89
2021/01/11 01:31:41;;;;;;;42.80;25.67;;;-2.50;91.30;;;;;;5055505;28;20589;-90
2021/01/11 01:34:10;;;;;;;38.83;24.25;;;-2.50;91.60;;;;;;5050282;28;20429;-90
2021/01/11 01:36:37;;;;;;;38.10;24.27;;;-2.40;91.60;;;;;;5017937;28;20419;-89
2021/01/11 01:39:04;;;;;;;40.92;24.20;;;-2.40;91.40;;;;;;5017265;28;20820;-89
2021/01/11 01:41:30;;;;;;;37.97;22.73;;;-2.50;91.20;;;;;;5054473;28;20899;-90
2021/01/11 01:43:57;;;;;;;38.03;23.00;;;-2.50;91.00;;;;;;5037456;28;20479;-89
2021/01/11 01:46:27;;;;;;;37.45;23.23;;;-2.50;91.10;;;;;;5002553;28;20873;-90
2021/01/11 01:48:54;;;;;;;37.53;23.63;;;-2.50;91.10;;;;;;5017778;28;20812;-89
2021/01/11 01:51:21;;;;;;;36.03;22.83;;;-2.50;90.90;;;;;;5029931;28;20437;-89
2021/01/11 01:53:48;;;;;;;36.03;22.67;;;-2.50;90.80;;;;;;5036980;28;20425;-89
2021/01/11 01:56:19;;;;;;;36.03;23.27;;;-2.60;90.60;;;;;;5044961;28;20404;-90
2021/01/11 01:58:47;;;;;;;38.10;23.42;;;-2.60;90.80;;;;;;5074554;28;20423;-90
2021/01/11 02:01:14;;;;;;;37.47;22.87;;;-2.60;91.10;;;;;;5064533;28;20409;-90
2021/01/11 02:03:42;;;;;;;38.30;22.27;;;-2.60;91.00;;;;;;5054758;28;20481;-90
2021/01/11 02:06:09;;;;;;;37.17;23.13;;;-2.60;91.00;;;;;;5034261;28;20831;-90
2021/01/11 02:08:42;;;;;;;36.95;23.17;;;-2.60;91.10;;;;;;5054740;28;20496;-90
2021/01/11 02:11:28;;;;;;;37.38;23.15;;;-2.60;91.20;;;;;;5035488;28;20405;-91
2021/01/11 02:14:07;;;;;;;36.25;22.70;;;-2.60;90.90;;;;;;5036778;28;20403;-90
2021/01/11 02:16:43;;;;;;;37.65;22.95;;;-2.60;90.80;;;;;;5052971;28;20418;-90
2021/01/11 02:19:16;;;;;;;36.58;22.20;;;-2.60;91.10;;;;;;5054119;28;20520;-91
2021/01/11 02:22:21;;;;;;;35.03;22.48;;;-2.60;90.90;;;;;;5045026;28;20988;-90
2021/01/11 02:25:03;;;;;;;39.38;23.60;;;-2.50;90.70;;;;;;5054275;28;20429;-91
2021/01/11 02:27:46;;;;;;;37.53;23.15;;;-2.50;90.80;;;;;;5051829;28;20462;-90
2021/01/11 02:30:32;;;;;;;39.08;23.60;;;-2.60;91.10;;;;;;5053666;28;20425;-91
2021/01/11 02:33:28;;;;;;;37.85;23.33;;;-2.50;91.20;;;;;;5052977;28;20440;-91
2021/01/11 02:36:06;;;;;;;40.05;24.52;;;-2.50;91.10;;;;;;5033763;28;20416;-90
2021/01/11 02:38:33;;;;;;;39.15;23.92;;;-2.50;91.00;;;;;;5062138;28;20406;-91
2021/01/11 02:41:01;;;;;;;39.97;23.90;;;-2.50;91.00;;;;;;5073523;28;20419;-90
2021/01/11 02:43:27;;;;;;;38.25;23.92;;;-2.60;91.00;;;;;;5053970;28;20419;-91
2021/01/11 02:45:54;;;;;;;39.78;23.60;;;-2.50;91.10;;;;;;5056711;28;20392;-91
2021/01/11 02:48:52;;;;;;;37.65;23.17;;;-2.50;91.00;;;;;;5053983;28;20405;-91
2021/01/11 02:51:21;;;;;;;37.20;22.80;;;-2.50;91.00;;;;;;5056131;28;20897;-92
2021/01/11 02:54:10;;;;;;;40.25;23.88;;;-2.50;91.00;;;;;;5049304;28;20433;-90
2021/01/11 02:57:21;;;;;;;36.53;23.50;;;-2.50;91.00;;;;;;5035881;28;20455;-91
2021/01/11 02:59:53;;;;;;;37.10;23.77;;;-2.50;91.10;;;;;;5059372;28;20417;-91
2021/01/11 03:02:22;;;;;;;37.83;23.33;;;-2.50;91.30;;;;;;5035359;28;20895;-90
2021/01/11 03:04:50;;;;;;;38.45;24.10;;;-2.50;91.30;;;;;;5034139;28;20496;-91
2021/01/11 03:07:17;;;;;;;40.47;24.63;;;-2.50;91.20;;;;;;5035813;28;20801;-90
2021/01/11 03:09:46;;;;;;;41.75;25.23;;;-2.50;91.20;;;;;;5051217;28;20732;-90
2021/01/11 03:12:14;;;;;;;41.45;24.80;;;-2.50;91.50;;;;;;5035549;28;20437;-90
2021/01/11 03:14:41;;;;;;;41.03;24.65;;;-2.40;91.40;;;;;;5034834;28;20429;-91
2021/01/11 03:17:08;;;;;;;42.43;25.77;;;-2.50;91.30;;;;;;5053295;28;20418;-91
2021/01/11 03:19:35;;;;;;;42.13;25.23;;;-2.40;91.40;;;;;;5035679;28;20512;-91
2021/01/11 03:22:02;;;;;;;43.00;25.92;;;-2.50;91.50;;;;;;5049538;28;20411;-91
2021/01/11 03:24:32;;;;;;;43.90;25.90;;;-2.50;91.50;;;;;;5072991;28;20415;-91
2021/01/11 03:27:06;;;;;;;40.53;24.13;;;-2.40;91.20;;;;;;5037422;28;20451;-90
2021/01/11 03:29:33;;;;;;;42.77;24.63;;;-2.50;91.20;;;;;;5053172;28;20398;-91
2021/01/11 03:32:00;;;;;;;42.90;24.80;;;-2.50;91.40;;;;;;5064367;28;20746;-92
2021/01/11 03:34:28;;;;;;;42.15;24.30;;;-2.50;91.50;;;;;;5055893;28;20412;-92
2021/01/11 03:36:55;;;;;;;39.92;24.52;;;-2.40;91.90;;;;;;5052628;28;20412;-91
2021/01/11 03:39:22;;;;;;;38.10;23.88;;;-2.50;91.60;;;;;;5073257;28;20403;-91
2021/01/11 03:41:50;;;;;;;38.83;24.25;;;-2.50;91.60;;;;;;5064215;28;20451;-91
2021/01/11 03:44:20;;;;;;;40.35;24.35;;;-2.50;91.80;;;;;;5052801;28;20448;-91
2021/01/11 03:46:47;;;;;;;37.75;23.60;;;-2.60;91.80;;;;;;5039148;28;20473;-92
2021/01/11 03:49:14;;;;;;;38.63;24.48;;;-2.50;91.80;;;;;;5055178;28;20423;-91
2021/01/11 03:51:41;;;;;;;37.08;23.23;;;-2.50;91.70;;;;;;5052573;28;20392;-91
2021/01/11 03:54:10;;;;;;;36.63;23.02;;;-2.50;91.60;;;;;;5035641;28;20417;-91
2021/01/11 03:56:37;;;;;;;37.42;23.48;;;-2.50;91.70;;;;;;5035261;28;20478;-91
2021/01/11 03:59:04;;;;;;;36.85;23.40;;;-2.50;91.60;;;;;;5069049;28;20404;-91
2021/01/11 04:01:35;;;;;;;37.22;22.65;;;-2.50;91.90;;;;;;5072692;28;20465;-92
2021/01/11 04:04:01;;;;;;;34.00;21.05;;;-2.60;91.70;;;;;;5038427;28;20471;-92
2021/01/11 04:06:29;;;;;;;31.13;19.90;;;-2.60;91.30;;;;;;5052440;28;20418;-92
2021/01/11 04:08:55;;;;;;;33.77;20.97;;;-2.50;91.10;;;;;;5040309;28;20412;-93
2021/01/11 04:11:25;;;;;;;31.08;19.85;;;-2.60;90.90;;;;;;5033311;28;20408;-92
2021/01/11 04:13:53;;;;;;;33.30;20.83;;;-2.60;90.80;;;;;;5024472;28;20429;-92
2021/01/11 04:16:20;;;;;;;29.98;19.52;;;-2.60;90.80;;;;;;5035500;28;20466;-91
2021/01/11 04:18:49;;;;;;;33.50;19.85;;;-2.60;90.70;;;;;;5036916;28;20412;-91
2021/01/11 04:21:16;;;;;;;32.63;20.33;;;-2.70;90.70;;;;;;5048510;28;20391;-92
2021/01/11 04:23:43;;;;;;;32.80;20.70;;;-2.70;90.70;;;;;;5054412;28;20404;-91
2021/01/11 04:26:13;;;;;;;33.05;20.75;;;-2.60;90.80;;;;;;5056758;28;20389;-91
2021/01/11 04:28:40;;;;;;;34.83;21.35;;;-2.70;90.70;;;;;;5037635;28;20409;-91
2021/01/11 04:31:06;;;;;;;32.55;21.05;;;-2.70;90.80;;;;;;5055810;28;20409;-91
2021/01/11 04:33:33;;;;;;;35.20;22.10;;;-2.70;90.90;;;;;;5038649;28;20475;-91
2021/01/11 04:36:02;;;;;;;36.53;22.98;;;-2.70;91.00;;;;;;5036998;28;20898;-91
2021/01/11 04:38:29;;;;;;;37.20;22.45;;;-2.70;91.20;;;;;;5056030;28;20432;-91
2021/01/11 04:41:03;;;;;;;39.40;24.00;;;-2.70;91.10;;;;;;5036830;28;20484;-91
2021/01/11 04:43:34;;;;;;;36.35;23.35;;;-2.80;91.30;;;;;;5038480;28;20409;-91
2021/01/11 04:46:01;;;;;;;37.63;23.90;;;-2.80;91.50;;;;;;5036689;28;20413;-91
2021/01/11 04:48:34;;;;;;;39.05;23.35;;;-2.80;91.50;;;;;;5038592;28;20521;-91
2021/01/11 04:51:01;;;;;;;41.30;23.80;;;-2.80;91.50;;;;;;5054329;28;20473;-90
2021/01/11 04:53:28;;;;;;;37.95;23.20;;;-2.80;91.40;;;;;;5038737;28;20416;-90
2021/01/11 04:55:57;;;;;;;38.55;23.30;;;-2.80;91.40;;;;;;5037056;28;20432;-89
2021/01/11 04:58:28;;;;;;;37.58;22.92;;;-2.90;91.50;;;;;;5038230;28;20412;-90
2021/01/11 05:01:00;;;;;;;39.30;23.05;;;-2.90;91.60;;;;;;5036236;28;20409;-89
2021/01/11 05:03:29;;;;;;;38.08;22.95;;;-2.90;91.50;;;;;;5038263;28;20401;-90
2021/01/11 05:05:59;;;;;;;37.30;22.85;;;-2.80;91.30;;;;;;5036576;28;20416;-91
2021/01/11 05:08:25;;;;;;;37.60;23.08;;;-2.80;91.20;;;;;;5055581;28;20468;-91
2021/01/11 05:10:52;;;;;;;39.00;23.52;;;-2.90;91.30;;;;;;5038193;28;20949;-90
2021/01/11 05:13:19;;;;;;;39.42;23.05;;;-2.90;91.40;;;;;;5053592;28;20463;-90
2021/01/11 05:15:45;;;;;;;40.42;24.27;;;-3.00;91.30;;;;;;5037916;28;20417;-91
2021/01/11 05:18:19;;;;;;;42.90;25.48;;;-3.00;91.10;;;;;;5036270;28;21260;-90
2021/01/11 05:20:47;;;;;;;40.20;24.80;;;-3.00;91.30;;;;;;5037594;28;20414;-91
2021/01/11 05:23:15;;;;;;;40.15;24.83;;;-3.10;91.30;;;;;;5053707;28;20448;-91
2021/01/11 05:25:44;;;;;;;40.88;23.92;;;-3.10;91.40;;;;;;5037510;28;20440;-90
2021/01/11 05:28:15;;;;;;;38.40;23.80;;;-3.00;91.60;;;;;;5019481;28;20463;-90
2021/01/11 05:30:47;;;;;;;41.58;24.48;;;-3.00;91.50;;;;;;5036819;28;20401;-90
2021/01/11 05:33:18;;;;;;;39.08;23.05;;;-3.10;91.50;;;;;;5045260;28;20931;-90
2021/01/11 05:35:46;;;;;;;39.73;23.80;;;-3.10;91.40;;;;;;5034869;28;20484;-91
2021/01/11 05:38:18;;;;;;;42.53;24.13;;;-3.20;91.30;;;;;;5021058;28;20401;-90
2021/01/11 05:40:46;;;;;;;39.60;23.50;;;-3.20;91.30;;;;;;5037605;28;20401;-90
2021/01/11 05:43:21;;;;;;;41.77;24.20;;;-3.20;91.20;;;;;;5035735;28;20451;-91
2021/01/11 05:45:48;;;;;;;41.13;25.27;;;-3.20;91.30;;;;;;5054762;28;20445;-91
2021/01/11 05:48:16;;;;;;;41.90;24.90;;;-3.30;91.50;;;;;;5036061;28;20425;-89
2021/01/11 05:50:43;;;;;;;41.70;25.70;;;-3.30;91.40;;;;;;5037467;28;20894;-90
2021/01/11 05:53:20;;;;;;;43.75;26.50;;;-3.30;91.50;;;;;;5036908;28;20890;-90
2021/01/11 05:55:51;;;;;;;40.80;25.10;;;-3.20;91.60;;;;;;5034733;28;20433;-89
2021/01/11 05:58:19;;;;;;;42.95;25.48;;;-3.30;91.60;;;;;;5037282;28;20421;-90
2021/01/11 06:00:46;;;;;;;44.55;26.92;;;-3.30;91.60;;;;;;5052594;28;20401;-91
2021/01/11 06:03:16;;;;;;;41.53;25.33;;;-3.30;91.70;;;;;;5036767;28;20417;-90
2021/01/11 06:05:44;;;;;;;41.85;26.13;;;-3.20;91.60;;;;;;5034938;28;20794;-90
2021/01/11 06:08:14;;;;;;;40.42;24.52;;;-3.30;91.40;;;;;;5037007;28;20472;-90
2021/01/11 06:10:45;;;;;;;39.22;24.80;;;-3.30;91.20;;;;;;5024925;28;20944;-90
2021/01/11 06:13:12;;;;;;;38.55;24.42;;;-3.30;91.20;;;;;;5017513;28;20403;-91
2021/01/11 06:15:40;;;;;;;39.40;23.90;;;-3.30;91.20;;;;;;5025413;28;20424;-91
2021/01/11 06:18:11;;;;;;;37.65;23.50;;;-3.30;91.00;;;;;;5037449;28;20767;-90
2021/01/11 06:20:45;;;;;;;40.63;24.30;;;-3.20;91.00;;;;;;5053406;28;20518;-91
2021/01/11 06:23:27;;;;;;;38.53;23.23;;;-3.30;90.60;;;;;;5020993;28;20390;-90
2021/01/11 06:25:55;;;;;;;42.77;25.20;;;-3.30;90.70;;;;;;5035285;28;20477;-90
2021/01/11 06:28:33;;;;;;;39.00;24.45;;;-3.30;90.90;;;;;;5036496;28;20487;-91
2021/01/11 06:31:13;;;;;;;39.50;24.33;;;-3.40;91.00;;;;;;5035749;28;20397;-91
2021/01/11 06:33:41;;;;;;;39.95;24.00;;;-3.40;90.90;;;;;;5069322;28;20423;-91
2021/01/11 06:36:34;;;;;;;37.90;23.87;;;-3.50;90.60;;;;;;5036030;28;20427;-91
2021/01/11 06:39:09;;;;;;;41.97;24.23;;;-3.50;90.80;;;;;;5012716;28;20436;-90
2021/01/11 06:41:39;;;;;;;42.63;26.08;;;-3.50;91.00;;;;;;5020430;28;20405;-91
2021/01/11 06:44:07;;;;;;;38.75;23.80;;;-3.50;90.90;;;;;;5036362;28;20421;-91
2021/01/11 06:46:42;;;;;;;38.70;24.25;;;-3.60;90.70;;;;;;5034911;28;20479;-90
2021/01/11 06:49:30;;;;;;;40.47;24.53;;;-3.60;90.90;;;;;;5036377;28;20429;-91
2021/01/11 06:52:05;;;;;;;40.78;24.02;;;-3.60;90.70;;;;;;5037132;28;20429;-91
2021/01/11 06:54:37;;;;;;;42.45;25.27;;;-3.70;90.90;;;;;;5073340;28;20453;-91
2021/01/11 06:57:09;;;;;;;40.28;24.52;;;-3.70;91.00;;;;;;5068406;28;20417;-91
2021/01/11 06:59:37;;;;;;;43.13;24.58;;;-3.70;91.20;;;;;;5053771;28;20401;-91
2021/01/11 07:02:42;;;;;;;40.95;24.05;;;-3.70;91.50;;;;;;5035306;28;20401;-91
2021/01/11 07:05:33;;;;;;;43.67;25.08;;;-3.70;91.30;;;;;;4968248;28;20454;-91
2021/01/11 07:08:09;;;;;;;41.47;24.92;;;-3.70;91.50;;;;;;5018558;28;20405;-92
2021/01/11 07:10:37;;;;;;;42.65;25.38;;;-3.70;91.60;;;;;;5052828;28;20467;-91
2021/01/11 07:13:31;;;;;;;44.15;25.92;;;-3.70;91.80;;;;;;5036573;28;20453;-91
2021/01/11 07:15:57;;;;;;;42.40;24.73;;;-3.60;91.80;;;;;;5051941;28;20436;-92
2021/01/11 07:18:42;;;;;;;44.20;25.42;;;-3.70;91.90;;;;;;5067694;28;20919;-93
2021/01/11 07:21:23;;;;;;;43.20;26.15;;;-3.70;91.80;;;;;;5034838;28;20428;-93
2021/01/11 07:23:51;;;;;;;41.83;25.60;;;-3.70;91.80;;;;;;5032283;28;20863;-92
2021/01/11 07:26:25;;;;;;;48.17;26.40;;;-3.60;91.90;;;;;;5051159;28;20417;-91
2021/01/11 07:28:54;;;;;;;43.35;26.20;;;-3.60;91.80;;;;;;5029072;28;20425;-92
2021/01/11 07:31:25;;;;;;;45.00;25.25;;;-3.60;91.60;;;;;;5033286;28;20900;-91
2021/01/11 07:34:03;;;;;;;42.22;24.60;;;-3.50;91.40;;;;;;5033255;28;20423;-91
2021/01/11 07:36:43;;;;;;;42.87;24.97;;;-3.50;91.30;;;;;;5026058;28;20404;-91
2021/01/11 07:39:16;;;;;;;43.55;25.15;;;-3.60;91.10;;;;;;5034020;28;20395;-94
2021/01/11 07:41:49;;;;;;;40.47;23.83;;;-3.50;90.90;;;;;;5016456;28;20476;-90
2021/01/11 07:44:36;;;;;;;42.85;25.00;;;-3.50;91.00;;;;;;5038625;28;20515;-94
2021/01/11 07:47:10;;;;;;;41.90;24.60;;;-3.40;91.00;;;;;;4996463;28;20424;-91
2021/01/11 07:49:50;;;;;;;42.25;24.73;;;-3.40;90.90;;;;;;5013847;28;20401;-91
2021/01/11 07:52:18;;;;;;;44.77;24.67;;;-3.30;91.00;;;;;;5009524;28;20423;-90
2021/01/11 07:54:49;;;;;;;46.33;25.75;;;-3.30;90.90;;;;;;5049287;23;20454;-71
2021/01/11 07:57:16;;;;;;;46.30;25.45;;;-3.30;90.80;;;;;;5067720;28;20410;-71
2021/01/11 07:59:43;;;;;;;41.00;24.23;;;-3.20;90.90;;;;;;5072814;28;20419;-71
2021/01/11 08:02:16;;;;;;;40.55;24.52;;;-3.20;90.70;;;;;;5050069;28;20412;-71
2021/01/11 08:04:46;;;;;;;43.13;24.67;;;-3.20;90.70;;;;;;5070181;28;20426;-71
2021/01/11 08:07:13;;;;;;;40.97;23.73;;;-3.10;90.70;;;;;;5078752;28;20414;-71
2021/01/11 08:09:41;;;;;;;42.20;25.13;;;-3.10;90.60;;;;;;5090110;28;20413;-71
2021/01/11 08:12:16;;;;;;;43.40;24.73;;;-3.00;90.60;;;;;;5075496;28;20427;-71
2021/01/11 08:14:44;;;;;;;43.90;25.10;;;-3.00;90.50;;;;;;5070180;28;20495;-71
2021/01/11 08:17:26;;;;;;;46.95;25.17;;;-2.90;90.50;;;;;;5057788;28;20402;-72
2021/01/11 08:19:54;;;;;;;43.50;25.00;;;-2.80;90.40;;;;;;5076659;28;20465;-71
2021/01/11 08:22:23;;;;;;;43.72;25.10;;;-2.70;90.30;;;;;;5058411;28;20435;-71
2021/01/11 08:24:51;;;;;;;48.88;26.42;;;-2.60;90.10;;;;;;5090357;28;20406;-72
2021/01/11 08:27:43;;;;;;;44.75;26.45;;;-2.60;89.60;;;;;;5086472;28;20698;-72
2021/01/11 08:30:16;;;;;;;44.78;26.33;;;-2.50;89.40;;;;;;5090234;28;20409;-71
2021/01/11 08:32:45;;;;;;;47.88;26.38;;;-2.40;89.10;;;;;;5069468;28;20442;-72
2021/01/11 08:35:17;;;;;;;40.50;25.27;;;-2.20;88.30;;;;;;5091573;28;20451;-71
2021/01/11 08:37:44;;;;;;;49.67;28.00;;;-2.20;87.70;;;;;;5086886;28;20396;-71
2021/01/11 08:40:19;;;;;;;53.07;28.17;;;-2.20;87.50;;;;;;5089970;28;20406;-71
2021/01/11 08:42:47;;;;;;;47.55;27.45;;;-2.10;87.10;;;;;;5088582;28;20398;-71
2021/01/11 08:45:36;;;;;;;43.58;26.50;;;-1.90;86.60;;;;;;5108812;28;20444;-71
2021/01/11 08:48:05;;;;;;;44.65;25.35;;;-1.80;86.00;;;;;;5092448;28;20412;-71
2021/01/11 08:50:37;;;;;;;40.45;24.55;;;-1.80;85.30;;;;;;5084521;28;20440;-70
2021/01/11 08:53:20;;;;;;;44.67;26.27;;;-1.60;85.00;;;;;;5110170;28;20852;-71
2021/01/11 08:56:09;;;;;;;44.58;25.30;;;-1.50;84.60;;;;;;5090182;28;20514;-71
2021/01/11 08:58:47;;;;;;;39.27;24.13;;;-1.40;83.80;;;;;;5110058;28;20443;-71
2021/01/11 09:01:17;;;;;;;43.33;24.30;;;-1.10;83.20;;;;;;5079583;28;20832;-71
2021/01/11 09:03:55;;;;;;;42.15;24.48;;;-1.10;82.40;;;;;;5103697;28;21002;-71
2021/01/11 09:06:41;;;;;;;42.83;23.83;;;-0.90;82.40;;;;;;5081648;28;20482;-71
2021/01/11 09:09:13;;;;;;;41.55;24.08;;;-0.90;81.80;;;;;;5059417;28;20463;-71
2021/01/11 09:11:41;;;;;;;42.25;24.85;;;-0.90;80.70;;;;;;5110674;28;20794;-71
2021/01/11 09:14:15;;;;;;;45.70;25.17;;;-0.90;81.70;;;;;;5113885;28;20473;-71
2021/01/11 09:16:46;;;;;;;44.78;25.10;;;-0.90;81.10;;;;;;5090760;28;20447;-71
2021/01/11 09:19:20;;;;;;;45.10;24.65;;;-0.80;81.30;;;;;;5094091;28;20915;-71
2021/01/11 09:22:14;;;;;;;46.45;25.33;;;-0.70;81.00;;;;;;5109515;28;20931;-70
2021/01/11 09:24:42;;;;;;;49.10;26.07;;;-0.50;80.60;;;;;;5094104;28;20404;-71
2021/01/11 09:27:10;;;;;;;45.55;26.45;;;-0.40;79.80;;;;;;5105355;28;20416;-70
2021/01/11 09:29:37;;;;;;;45.42;25.88;;;-0.30;79.40;;;;;;5113766;28;20396;-71
2021/01/11 09:32:05;;;;;;;43.10;23.90;;;-0.20;79.30;;;;;;5105161;28;20429;-71
2021/01/11 09:34:31;;;;;;;46.63;25.27;;;-0.20;78.50;;;;;;5092626;28;20564;-71
2021/01/11 09:36:58;;;;;;;45.35;24.83;;;-0.10;78.20;;;;;;5078261;28;20458;-71
2021/01/11 09:39:24;;;;;;;48.05;26.70;;;-0.10;78.30;;;;;;5054669;28;20852;-71
2021/01/11 09:41:53;;;;;;;42.03;25.40;;;-0.10;78.80;;;;;;5081891;28;20400;-71
2021/01/11 09:44:20;;;;;;;46.28;25.55;;;0.00;78.30;;;;;;5107071;28;20465;-71
2021/01/11 09:46:54;;;;;;;41.92;24.05;;;-0.10;79.50;;;;;;5058627;28;20404;-71
2021/01/11 09:49:21;;;;;;;40.78;24.15;;;-0.10;79.10;;;;;;5113119;28;20488;-71
2021/01/11 09:51:48;;;;;;;43.70;24.23;;;-0.20;78.70;;;;;;5078467;28;20891;-71
2021/01/11 09:54:15;;;;;;;42.72;24.83;;;-0.10;78.80;;;;;;5077955;28;20454;-71
2021/01/11 09:56:41;;;;;;;41.95;25.88;;;0.00;77.80;;;;;;5054834;28;20404;-71
2021/01/11 09:59:13;;;;;;;40.03;25.35;;;0.10;78.60;;;;;;5086909;28;20735;-71
2021/01/11 10:01:43;;;;;;;37.67;24.05;;;0.10;77.90;;;;;;5112950;28;20404;-71
2021/01/11 10:04:12;;;;;;;39.17;23.70;;;0.20;77.10;;;;;;5093392;28;20416;-71
2021/01/11 10:06:41;;;;;;;40.15;24.70;;;0.40;76.30;;;;;;5074447;28;20517;-71
2021/01/11 10:09:17;;;;;;;39.70;24.13;;;0.50;76.30;;;;;;5101625;28;20813;-71
2021/01/11 10:11:51;;;;;;;42.80;24.27;;;0.60;75.50;;;;;;5075709;28;20864;-71
2021/01/11 10:14:18;;;;;;;45.58;24.77;;;0.60;76.00;;;;;;5074366;28;20424;-71
2021/01/11 10:16:49;;;;;;;38.53;24.27;;;0.60;75.90;;;;;;5111965;28;20396;-71
2021/01/11 10:19:23;;;;;;;41.30;25.05;;;0.50;76.20;;;;;;5082271;28;20402;-71
2021/01/11 10:21:53;;;;;;;39.97;25.25;;;0.30;76.70;;;;;;5106336;28;20461;-72
2021/01/11 10:24:20;;;;;;;44.17;24.67;;;0.20;77.30;;;;;;5084279;28;21104;-71
2021/01/11 10:26:48;;;;;;;41.63;24.75;;;0.00;77.60;;;;;;5109313;28;20412;-71
2021/01/11 10:29:16;;;;;;;39.30;24.48;;;-0.20;78.30;;;;;;5090584;28;20436;-71
2021/01/11 10:31:44;;;;;;;44.43;24.87;;;-0.30;78.90;;;;;;5093889;28;20404;-71
2021/01/11 10:34:16;;;;;;;43.80;24.75;;;-0.50;79.40;;;;;;5107498;28;20432;-71
2021/01/11 10:36:45;;;;;;;41.70;24.85;;;-0.60;80.50;;;;;;5084779;28;20436;-71
2021/01/11 10:39:12;;;;;;;44.67;25.52;;;-0.60;80.90;;;;;;5091233;28;21207;-71
2021/01/11 10:41:39;;;;;;;49.33;24.83;;;-0.60;80.20;;;;;;5088895;28;20737;-71
2021/01/11 10:44:09;;;;;;;41.55;24.98;;;-0.60;81.00;;;;;;5087042;28;20468;-71
2021/01/11 10:46:36;;;;;;;47.70;24.35;;;-0.60;80.20;;;;;;5086333;28;20828;-71
2021/01/11 10:49:04;;;;;;;41.83;25.08;;;-0.60;80.40;;;;;;5095159;28;20827;-71
2021/01/11 10:51:33;;;;;;;42.08;24.58;;;-0.50;80.30;;;;;;5081166;28;20419;-71
2021/01/11 10:54:00;;;;;;;40.08;25.35;;;-0.60;80.20;;;;;;5093725;28;20428;-70
2021/01/11 10:56:27;;;;;;;45.88;24.38;;;-0.60;80.40;;;;;;5089784;28;20449;-71
2021/01/11 10:58:54;;;;;;;42.28;24.10;;;-0.60;80.40;;;;;;5111998;28;20461;-70
2021/01/11 11:01:20;;;;;;;40.03;23.15;;;-0.70;79.90;;;;;;5089446;28;20409;-71
2021/01/11 11:03:47;;;;;;;37.55;23.48;;;-0.70;79.90;;;;;;5093374;28;20486;-70
2021/01/11 11:06:14;;;;;;;42.28;24.33;;;-0.80;80.10;;;;;;5091004;28;20479;-71
2021/01/11 11:08:43;;;;;;;47.38;24.80;;;-0.80;81.10;;;;;;5090913;28;20436;-71
2021/01/11 11:11:11;;;;;;;39.40;24.17;;;-0.80;81.30;;;;;;5089014;28;20931;-71
2021/01/11 11:13:42;;;;;;;43.73;24.43;;;-0.80;80.50;;;;;;5109834;28;20454;-71
2021/01/11 11:16:10;;;;;;;51.22;24.10;;;-0.80;80.30;;;;;;5111128;28;20898;-71
2021/01/11 11:18:37;;;;;;;38.80;24.17;;;-0.80;80.40;;;;;;5107345;28;20408;-71
2021/01/11 11:21:11;;;;;;;39.13;23.65;;;-0.70;80.70;;;;;;5110910;28;20937;-71
2021/01/11 11:23:38;;;;;;;44.23;23.43;;;-0.70;80.80;;;;;;5103116;28;20400;-71
2021/01/11 11:26:05;;;;;;;45.72;24.38;;;-0.70;80.50;;;;;;5093009;28;20404;-71
2021/01/11 11:28:33;;;;;;;41.25;24.40;;;-0.80;80.70;;;;;;5076078;28;20405;-71
2021/01/11 11:31:00;;;;;;;40.53;23.92;;;-0.70;80.70;;;;;;5090809;28;20414;-71
2021/01/11 11:33:30;;;;;;;37.78;23.30;;;-0.70;79.60;;;;;;5096317;28;20404;-71
2021/01/11 11:35:56;;;;;;;34.97;23.05;;;-0.70;80.20;;;;;;5092740;28;20424;-71
2021/01/11 11:38:25;;;;;;;36.15;23.17;;;-0.80;80.60;;;;;;5106736;28;20400;-71
2021/01/11 11:40:52;;;;;;;38.42;23.17;;;-0.80;81.00;;;;;;5092898;28;20490;-71
2021/01/11 11:43:18;;;;;;;37.25;23.67;;;-0.80;81.40;;;;;;5107147;28;21294;-70
2021/01/11 11:45:45;;;;;;;37.58;23.92;;;-0.80;81.20;;;;;;5076068;28;20403;-71
2021/01/11 11:48:13;;;;;;;40.25;24.33;;;-0.80;81.50;;;;;;5052529;28;20404;-70
2021/01/11 11:50:40;;;;;;;41.22;23.92;;;-0.80;80.80;;;;;;5090384;28;20412;-70
2021/01/11 11:53:07;;;;;;;36.75;23.80;;;-0.80;80.60;;;;;;5110298;28;20424;-70
2021/01/11 11:55:34;;;;;;;39.17;23.35;;;-0.80;81.00;;;;;;5079667;28;20859;-71
2021/01/11 11:58:00;;;;;;;38.75;23.70;;;-0.90;81.40;;;;;;5110315;28;20424;-70
2021/01/11 12:00:29;;;;;;;39.65;22.85;;;-0.80;81.50;;;;;;5079419;28;20793;-70
2021/01/11 12:03:13;;;;;;;35.20;22.92;;;-0.80;81.20;;;;;;5095092;28;20431;-70
2021/01/11 12:05:42;;;;;;;34.75;22.38;;;-1.00;80.40;;;;;;5106134;28;20459;-71
2021/01/11 12:08:08;;;;;;;39.65;22.98;;;-0.90;81.00;;;;;;5110277;28;20400;-70
2021/01/11 12:10:35;;;;;;;38.08;22.25;;;-0.90;80.60;;;;;;5097617;28;20879;-70
2021/01/11 12:13:01;;;;;;;34.40;21.13;;;-0.90;80.40;;;;;;5071873;28;20907;-70
2021/01/11 12:15:27;;;;;;;33.97;23.20;;;-0.90;78.80;;;;;;5092030;28;20456;-70
2021/01/11 12:17:54;;;;;;;35.20;22.85;;;-1.00;79.70;;;;;;5110043;28;20408;-70
2021/01/11 12:20:21;;;;;;;32.47;22.57;;;-1.10;80.70;;;;;;5106662;28;20834;-71
2021/01/11 12:22:50;;;;;;;37.17;23.10;;;-1.00;81.60;;;;;;5096906;28;20466;-70
2021/01/11 12:25:16;;;;;;;34.40;23.30;;;-1.00;81.40;;;;;;5088962;28;20497;-70
2021/01/11 12:27:42;;;;;;;34.53;22.42;;;-1.10;80.30;;;;;;5090639;28;20960;-71
2021/01/11 12:30:12;;;;;;;33.72;22.85;;;-1.10;79.60;;;;;;5109780;28;20881;-70
2021/01/11 12:32:40;;;;;;;34.45;22.92;;;-1.00;80.20;;;;;;5091551;28;20417;-70
2021/01/11 12:35:10;;;;;;;33.30;22.67;;;-1.10;81.20;;;;;;5072075;28;20417;-70
2021/01/11 12:37:36;;;;;;;38.90;24.95;;;-1.00;81.60;;;;;;5100970;28;20395;-70
2021/01/11 12:40:03;;;;;;;39.53;25.35;;;-0.90;80.40;;;;;;5113270;28;20388;-70
2021/01/11 12:42:29;;;;;;;39.10;25.17;;;-1.00;79.10;;;;;;5091788;28;20404;-70
2021/01/11 12:44:57;;;;;;;38.08;25.55;;;-1.10;78.90;;;;;;5075658;28;20786;-70